createdAt,value
2022-11-24T00:01:08.209Z,91962.84
2022-11-24T00:02:39.805Z,91968.81
2022-11-24T00:04:11.577Z,91966.63
2022-11-24T00:05:45.290Z,91962.38
2022-11-24T00:07:16.930Z,91963.78
2022-11-24T00:08:48.523Z,91959.41
2022-11-24T00:10:20.011Z,91968.88
2022-11-24T00:11:53.351Z,91981.00
2022-11-24T00:13:25.487Z,91976.16
2022-11-24T00:14:56.991Z,91985.13
2022-11-24T00:16:29.558Z,91987.34
2022-11-24T00:18:01.188Z,91982.31
2022-11-24T00:19:32.691Z,91987.81
2022-11-24T00:21:04.267Z,91986.75
2022-11-24T00:22:36.231Z,91988.78
2022-11-24T00:24:07.823Z,91984.41
2022-11-24T00:25:39.341Z,91981.72
2022-11-24T00:27:10.835Z,91985.66
2022-11-24T00:28:42.479Z,91987.22
2022-11-24T00:30:14.043Z,91988.16
2022-11-24T00:31:45.539Z,91988.03
2022-11-24T00:33:17.159Z,91986.75
2022-11-24T00:34:48.672Z,91985.66
2022-11-24T00:36:20.660Z,91982.50
2022-11-24T00:37:54.091Z,91982.03
2022-11-24T00:39:25.629Z,91988.50
2022-11-24T00:40:57.098Z,91979.97
2022-11-24T00:42:28.764Z,91984.84
2022-11-24T00:44:00.331Z,91984.56
2022-11-24T00:45:31.997Z,91987.84
2022-11-24T00:47:03.649Z,91984.06
2022-11-24T00:48:35.454Z,91992.41
2022-11-24T00:50:07.325Z,91995.09
2022-11-24T00:51:39.273Z,91995.88
2022-11-24T00:53:10.882Z,91994.28
2022-11-24T00:54:42.496Z,91993.50
2022-11-24T00:56:14.200Z,91995.09
2022-11-24T00:57:45.953Z,91989.44
2022-11-24T00:59:17.913Z,91991.00
2022-11-24T01:00:49.597Z,91988.16
2022-11-24T01:02:21.610Z,91987.69
2022-11-24T01:03:54.978Z,91996.03
2022-11-24T01:05:26.536Z,91991.00
2022-11-24T01:06:58.186Z,91996.03
2022-11-24T01:08:29.917Z,91992.72
2022-11-24T01:10:01.855Z,91991.94
2022-11-24T01:11:54.748Z,91988.31
2022-11-24T01:13:26.291Z,91999.16
2022-11-24T01:14:58.734Z,91997.59
2022-11-24T01:16:31.528Z,91997.09
2022-11-24T01:18:03.228Z,92000.56
2022-11-24T01:19:35.493Z,92005.63
2022-11-24T01:21:10.077Z,92011.13
2022-11-24T01:22:42.423Z,92006.41
2022-11-24T01:24:14.010Z,92003.59
2022-11-24T01:25:45.600Z,92006.13
2022-11-24T01:27:17.223Z,92006.75
2022-11-24T01:28:52.579Z,91998.88
2022-11-24T01:30:24.145Z,92005.16
2022-11-24T01:31:55.694Z,92010.38
2022-11-24T01:33:27.221Z,92004.41
2022-11-24T01:34:59.261Z,92014.34
2022-11-24T01:36:30.895Z,92002.84
2022-11-24T01:38:02.712Z,92004.72
2022-11-24T01:39:34.313Z,92006.59
2022-11-24T01:41:05.860Z,92008.50
2022-11-24T01:42:43.148Z,92006.28
2022-11-24T01:44:24.756Z,92010.22
2022-11-24T01:45:56.353Z,91998.25
2022-11-24T01:47:33.365Z,92001.88
2022-11-24T01:49:08.316Z,91999.66
2022-11-24T01:50:41.874Z,91993.69
2022-11-24T01:52:18.323Z,91992.59
2022-11-24T01:53:51.924Z,91991.31
2022-11-24T01:55:26.149Z,91992.28
2022-11-24T01:56:58.925Z,91989.13
2022-11-24T01:58:30.848Z,91991.81
2022-11-24T02:00:04.128Z,91986.75
2022-11-24T02:01:35.754Z,91995.72
2022-11-24T02:03:07.392Z,91990.38
2022-11-24T02:04:39.502Z,91993.84
2022-11-24T02:06:11.425Z,91994.00
2022-11-24T02:07:42.908Z,92000.75
2022-11-24T02:09:20.082Z,92004.88
2022-11-24T02:10:51.616Z,92000.78
2022-11-24T02:12:23.818Z,92002.66
2022-11-24T02:13:55.489Z,92003.47
2022-11-24T02:15:27.546Z,91999.19
2022-11-24T02:16:59.471Z,92001.56
2022-11-24T02:18:31.257Z,92001.69
2022-11-24T02:20:04.375Z,91997.59
2022-11-24T02:21:36.880Z,91998.09
2022-11-24T02:23:24.913Z,91992.09
2022-11-24T02:24:58.270Z,91999.16
2022-11-24T02:26:32.795Z,91996.66
2022-11-24T02:28:06.070Z,92002.31
2022-11-24T02:29:37.827Z,92004.34
2022-11-24T02:31:09.596Z,91999.00
2022-11-24T02:32:41.517Z,92002.94
2022-11-24T02:34:13.187Z,91999.16
2022-11-24T02:35:44.810Z,92002.63
2022-11-24T02:37:16.600Z,92002.63
2022-11-24T02:38:48.210Z,92002.16
2022-11-24T02:40:25.843Z,91997.41
2022-11-24T02:41:59.243Z,91998.22
2022-11-24T02:43:30.973Z,92002.47
2022-11-24T02:45:02.441Z,92003.41
2022-11-24T02:46:34.102Z,92007.00
2022-11-24T02:48:06.197Z,92007.19
2022-11-24T02:49:38.073Z,92010.00
2022-11-24T02:51:09.789Z,92008.56
2022-11-24T02:52:41.384Z,92001.31
2022-11-24T02:54:13.026Z,92004.47
2022-11-24T02:55:44.679Z,92004.63
2022-11-24T02:57:16.546Z,92003.53
2022-11-24T02:58:48.160Z,92005.56
2022-11-24T03:00:20.014Z,92005.56
2022-11-24T03:01:52.564Z,92004.00
2022-11-24T03:03:24.891Z,92006.19
2022-11-24T03:04:56.553Z,92012.34
2022-11-24T03:06:28.083Z,92007.31
2022-11-24T03:07:59.662Z,92007.47
2022-11-24T03:09:32.052Z,92014.28
2022-11-24T03:11:03.652Z,92004.97
2022-11-24T03:12:35.174Z,92007.50
2022-11-24T03:14:06.711Z,92004.19
2022-11-24T03:15:38.347Z,92002.94
2022-11-24T03:17:09.905Z,92011.28
2022-11-24T03:18:41.679Z,92003.56
2022-11-24T03:20:14.483Z,92006.25
2022-11-24T03:21:45.982Z,92012.09
2022-11-24T03:23:17.576Z,92010.50
2022-11-24T03:24:49.144Z,92013.34
2022-11-24T03:26:23.155Z,92015.06
2022-11-24T03:27:55.941Z,92011.59
2022-11-24T03:29:27.502Z,92016.31
2022-11-24T03:30:59.103Z,92016.00
2022-11-24T03:32:30.895Z,92008.75
2022-11-24T03:34:02.488Z,92013.31
2022-11-24T03:35:34.194Z,92019.00
2022-11-24T03:37:05.754Z,92012.06
2022-11-24T03:38:37.286Z,92014.28
2022-11-24T03:40:09.068Z,92020.28
2022-11-24T03:41:41.225Z,92012.88
2022-11-24T03:43:13.648Z,92015.56
2022-11-24T03:44:45.270Z,92014.44
2022-11-24T03:46:17.027Z,92012.88
2022-11-24T03:47:50.652Z,92013.66
2022-11-24T03:49:22.259Z,92007.50
2022-11-24T03:50:55.607Z,92017.28
2022-11-24T03:52:27.305Z,92022.16
2022-11-24T03:53:59.023Z,92028.31
2022-11-24T03:55:30.522Z,92017.75
2022-11-24T03:57:02.126Z,92022.19
2022-11-24T03:58:34.065Z,92026.09
2022-11-24T04:00:07.019Z,92022.47
2022-11-24T04:01:38.642Z,92028.00
2022-11-24T04:03:10.329Z,92032.25
2022-11-24T04:04:47.078Z,92030.81
2022-11-24T04:06:21.845Z,92034.00
2022-11-24T04:07:57.505Z,92038.56
2022-11-24T04:09:29.123Z,92040.63
2022-11-24T04:11:01.043Z,92046.00
2022-11-24T04:12:45.094Z,92045.03
2022-11-24T04:14:16.659Z,92040.47
2022-11-24T04:15:48.385Z,92043.00
2022-11-24T04:17:20.157Z,92046.28
2022-11-24T04:18:52.396Z,92039.66
2022-11-24T04:20:24.042Z,92037.78
2022-11-24T04:21:55.886Z,92035.28
2022-11-24T04:23:28.902Z,92053.88
2022-11-24T04:25:00.861Z,92048.69
2022-11-24T04:26:33.229Z,92042.84
2022-11-24T04:28:04.883Z,92046.47
2022-11-24T04:29:36.810Z,92053.69
2022-11-24T04:31:08.481Z,92042.38
2022-11-24T04:32:40.147Z,92051.50
2022-11-24T04:34:11.753Z,92052.59
2022-11-24T04:35:43.343Z,92051.34
2022-11-24T04:37:15.303Z,92053.22
2022-11-24T04:39:22.942Z,92048.19
2022-11-24T04:40:38.611Z,92054.63
2022-11-24T04:42:10.161Z,92058.88
2022-11-24T04:43:41.745Z,92055.72
2022-11-24T04:45:13.481Z,92055.72
2022-11-24T04:46:45.102Z,92062.53
2022-11-24T04:48:16.820Z,92060.00
2022-11-24T04:49:49.265Z,92065.03
2022-11-24T04:51:20.842Z,92064.38
2022-11-24T04:52:52.749Z,92071.78
2022-11-24T04:54:24.551Z,92067.34
2022-11-24T04:55:56.353Z,92072.53
2022-11-24T04:57:27.995Z,92072.53
2022-11-24T04:59:03.827Z,92076.31
2022-11-24T05:00:38.323Z,92085.28
2022-11-24T05:02:10.180Z,92090.75
2022-11-24T05:03:42.431Z,92087.44
2022-11-24T05:05:13.996Z,92089.34
2022-11-24T05:06:45.529Z,92094.50
2022-11-24T05:08:17.051Z,92097.50
2022-11-24T05:10:06.932Z,92104.41
2022-11-24T05:11:38.473Z,92098.63
2022-11-24T05:13:10.467Z,92101.91
2022-11-24T05:14:42.038Z,92114.31
2022-11-24T05:16:13.725Z,92111.00
2022-11-24T05:17:45.349Z,92109.09
2022-11-24T05:19:17.192Z,92113.66
2022-11-24T05:20:49.678Z,92110.81
2022-11-24T05:22:21.213Z,92114.28
2022-11-24T05:23:52.771Z,92124.97
2022-11-24T05:25:24.328Z,92119.00
2022-11-24T05:26:56.016Z,92121.69
2022-11-24T05:28:27.754Z,92125.94
2022-11-24T05:29:59.458Z,92127.03
2022-11-24T05:31:31.325Z,92127.03
2022-11-24T05:33:04.952Z,92128.75
2022-11-24T05:34:36.784Z,92126.19
2022-11-24T05:36:08.622Z,92131.06
2022-11-24T05:37:40.253Z,92131.88
2022-11-24T05:39:11.777Z,92130.75
2022-11-24T05:40:43.366Z,92141.44
2022-11-24T05:42:33.645Z,92138.31
2022-11-24T05:44:05.435Z,92133.25
2022-11-24T05:45:37.014Z,92132.78
2022-11-24T05:47:08.739Z,92132.78
2022-11-24T05:48:40.661Z,92134.66
2022-11-24T05:50:12.804Z,92129.19
2022-11-24T05:51:44.447Z,92133.41
2022-11-24T05:53:15.954Z,92136.28
2022-11-24T05:54:47.419Z,92137.56
2022-11-24T05:56:18.921Z,92136.47
2022-11-24T05:57:50.628Z,92143.09
2022-11-24T05:59:22.310Z,92140.72
2022-11-24T06:00:53.951Z,92143.09
2022-11-24T06:02:25.758Z,92140.09
2022-11-24T06:03:57.428Z,92144.81
2022-11-24T06:05:29.197Z,92149.88
2022-11-24T06:07:00.875Z,92154.44
2022-11-24T06:08:33.102Z,92153.16
2022-11-24T06:10:05.206Z,92149.53
2022-11-24T06:11:36.841Z,92148.25
2022-11-24T06:13:09.075Z,92151.22
2022-11-24T06:14:40.931Z,92152.81
2022-11-24T06:16:12.813Z,92154.09
2022-11-24T06:17:44.437Z,92158.50
2022-11-24T06:19:16.014Z,92157.41
2022-11-24T06:21:09.208Z,92155.22
2022-11-24T06:22:39.638Z,92161.97
2022-11-24T06:24:11.349Z,92152.06
2022-11-24T06:25:46.151Z,92156.00
2022-11-24T06:27:20.346Z,92159.66
2022-11-24T06:28:52.474Z,92160.44
2022-11-24T06:30:24.045Z,92162.03
2022-11-24T06:31:55.564Z,92162.34
2022-11-24T06:33:27.179Z,92161.06
2022-11-24T06:34:58.697Z,92164.53
2022-11-24T06:36:30.292Z,92157.59
2022-11-24T06:38:01.868Z,92164.81
2022-11-24T06:55:24.071Z,92179.56
2022-11-24T06:56:59.085Z,92183.06
2022-11-24T06:58:30.674Z,92182.94
2022-11-24T07:00:02.842Z,92185.16
2022-11-24T07:01:34.695Z,92196.25
2022-11-24T07:03:06.419Z,92186.00
2022-11-24T07:04:38.072Z,92182.72
2022-11-24T07:06:09.708Z,92191.41
2022-11-24T07:07:41.507Z,92194.25
2022-11-24T07:09:13.405Z,92199.59
2022-11-24T07:10:45.115Z,92200.56
2022-11-24T07:12:16.589Z,92200.91
2022-11-24T07:13:48.353Z,92201.88
2022-11-24T07:15:20.031Z,92201.25
2022-11-24T07:16:51.684Z,92206.47
2022-11-24T07:18:23.465Z,92208.22
2022-11-24T07:19:55.157Z,92206.19
2022-11-24T07:21:26.979Z,92212.00
2022-11-24T07:22:58.793Z,92208.13
2022-11-24T07:24:30.340Z,92208.56
2022-11-24T07:26:06.733Z,92211.72
2022-11-24T07:27:38.897Z,92212.22
2022-11-24T07:29:10.521Z,92213.97
2022-11-24T07:30:42.063Z,92213.69
2022-11-24T07:32:13.834Z,92213.38
2022-11-24T07:33:49.575Z,92208.34
2022-11-24T07:35:21.168Z,92217.94
2022-11-24T07:36:52.881Z,92214.66
2022-11-24T07:38:24.756Z,92213.06
2022-11-24T07:39:56.414Z,92219.84
2022-11-24T07:41:27.971Z,92215.94
2022-11-24T07:43:00.441Z,92217.19
2022-11-24T07:44:32.181Z,92211.38
2022-11-24T07:46:04.470Z,92225.88
2022-11-24T07:47:38.894Z,92229.16
2022-11-24T07:49:10.489Z,92232.94
2022-11-24T07:50:42.194Z,92238.63
2022-11-24T07:52:13.890Z,92238.78
2022-11-24T07:53:45.490Z,92238.00
2022-11-24T07:55:17.264Z,92242.75
2022-11-24T07:56:49.178Z,92237.38
2022-11-24T07:58:20.902Z,92243.69
2022-11-24T07:59:52.930Z,92239.91
2022-11-24T08:01:24.829Z,92246.53
2022-11-24T08:02:56.543Z,92247.63
2022-11-24T08:04:28.269Z,92249.34
2022-11-24T08:06:23.148Z,92254.69
2022-11-24T08:07:52.224Z,92250.44
2022-11-24T08:09:23.828Z,92249.81
2022-11-24T08:10:55.375Z,92255.19
2022-11-24T08:12:26.896Z,92255.34
2022-11-24T08:13:58.552Z,92249.03
2022-11-24T08:15:30.195Z,92259.25
2022-11-24T08:17:01.773Z,92257.53
2022-11-24T08:18:35.503Z,92254.25
2022-11-24T08:20:07.638Z,92254.09
2022-11-24T08:21:39.401Z,92258.34
2022-11-24T08:23:11.264Z,92253.94
2022-11-24T08:24:47.294Z,92254.88
2022-11-24T08:26:19.550Z,92257.13
2022-11-24T08:27:51.127Z,92258.44
2022-11-24T08:29:23.000Z,92263.13
2022-11-24T08:31:01.344Z,92260.00
2022-11-24T08:32:32.954Z,92259.06
2022-11-24T08:34:05.033Z,92265.69
2022-11-24T08:35:37.826Z,92261.59
2022-11-24T08:37:09.380Z,92264.91
2022-11-24T08:38:41.014Z,92266.66
2022-11-24T08:40:12.858Z,92269.94
2022-11-24T08:41:44.982Z,92271.19
2022-11-24T08:43:16.769Z,92275.13
2022-11-24T08:44:48.309Z,92279.06
2022-11-24T08:46:20.139Z,92274.13
2022-11-24T08:47:52.940Z,92282.16
2022-11-24T08:49:24.441Z,92288.31
2022-11-24T08:50:56.245Z,92285.34
2022-11-24T08:52:27.885Z,92290.84
2022-11-24T08:54:00.050Z,92286.25
2022-11-24T08:55:31.607Z,92291.81
2022-11-24T08:57:03.365Z,92298.91
2022-11-24T08:58:35.399Z,92293.25
2022-11-24T09:00:07.507Z,92292.31
2022-11-24T09:01:39.052Z,92296.28
2022-11-24T09:03:11.098Z,92291.41
2022-11-24T09:04:43.544Z,92292.63
2022-11-24T09:06:15.212Z,92295.50
2022-11-24T09:07:46.780Z,92294.69
2022-11-24T09:09:18.362Z,92296.59
2022-11-24T09:10:49.992Z,92292.50
2022-11-24T09:12:21.511Z,92292.50
2022-11-24T09:13:53.308Z,92299.28
2022-11-24T09:15:24.855Z,92298.97
2022-11-24T09:16:56.483Z,92304.19
2022-11-24T09:18:30.397Z,92301.66
2022-11-24T09:20:02.652Z,92301.66
2022-11-24T09:21:36.249Z,92301.34
2022-11-24T09:23:07.794Z,92310.50
2022-11-24T09:24:39.933Z,92314.75
2022-11-24T09:26:12.612Z,92307.66
2022-11-24T09:27:44.308Z,92321.84
2022-11-24T09:29:16.392Z,92316.47
2022-11-24T09:30:48.034Z,92321.47
2022-11-24T09:32:19.764Z,92321.00
2022-11-24T09:33:51.475Z,92314.53
2022-11-24T09:35:23.154Z,92315.13
2022-11-24T09:36:54.739Z,92313.88
2022-11-24T09:38:26.457Z,92315.91
2022-11-24T09:39:58.104Z,92318.59
2022-11-24T09:41:49.244Z,92316.03
2022-11-24T09:43:24.836Z,92315.09
2022-11-24T09:44:59.958Z,92310.50
2022-11-24T09:46:31.674Z,92308.13
2022-11-24T09:48:09.391Z,92312.38
2022-11-24T09:49:48.471Z,92303.72
2022-11-24T09:51:25.260Z,92308.59
2022-11-24T09:53:08.936Z,92305.78
2022-11-24T09:54:43.987Z,92301.63
2022-11-24T09:56:22.522Z,92301.44
2022-11-24T09:57:56.972Z,92312.97
2022-11-24T09:59:28.620Z,92303.22
2022-11-24T10:01:00.251Z,92309.84
2022-11-24T10:02:32.113Z,92309.38
2022-11-24T10:04:06.247Z,92304.47
2022-11-24T10:05:38.298Z,92308.41
2022-11-24T10:07:15.496Z,92304.13
2022-11-24T10:09:06.094Z,92308.09
2022-11-24T10:10:48.143Z,92311.56
2022-11-24T10:12:22.474Z,92309.06
2022-11-24T10:14:11.779Z,92316.13
2022-11-24T10:16:15.821Z,92321.66
2022-11-24T10:17:53.580Z,92321.97
2022-11-24T10:19:36.453Z,92314.53
2022-11-24T10:21:27.591Z,92318.16
2022-11-24T10:23:17.400Z,92326.69
2022-11-24T10:24:53.178Z,92329.50
2022-11-24T10:26:25.192Z,92329.16
2022-11-24T10:28:00.703Z,92328.00
2022-11-24T10:29:38.175Z,92326.75
2022-11-24T10:31:29.640Z,92327.97
2022-11-24T10:33:01.513Z,92339.47
2022-11-24T10:34:40.428Z,92340.06
2022-11-24T10:36:14.313Z,92339.44
2022-11-24T10:37:51.346Z,92348.38
2022-11-24T10:39:28.563Z,92348.03
2022-11-24T10:41:02.490Z,92344.84
2022-11-24T10:42:37.086Z,92335.44
2022-11-24T10:44:12.595Z,92343.63
2022-11-24T10:45:44.482Z,92344.75
2022-11-24T10:47:17.908Z,92340.63
2022-11-24T10:48:50.261Z,92346.78
2022-11-24T10:50:23.116Z,92338.09
2022-11-24T10:52:06.015Z,92337.56
2022-11-24T10:53:37.950Z,92351.38
2022-11-24T10:55:09.595Z,92343.78
2022-11-24T10:56:41.920Z,92348.13
2022-11-24T10:58:17.247Z,92347.78
2022-11-24T10:59:49.226Z,92348.38
2022-11-24T11:01:32.729Z,92347.44
2022-11-24T11:03:11.369Z,92343.28
2022-11-24T11:04:43.547Z,92354.28
2022-11-24T11:06:17.220Z,92358.97
2022-11-24T11:07:49.450Z,92352.31
2022-11-24T11:09:21.680Z,92354.81
2022-11-24T11:11:12.099Z,92360.66
2022-11-24T11:12:45.126Z,92357.19
2022-11-24T11:14:37.382Z,92362.03
2022-11-24T11:16:14.952Z,92357.59
2022-11-24T11:17:47.230Z,92372.66
2022-11-24T11:19:58.472Z,92364.72
2022-11-24T11:21:33.913Z,92369.63
2022-11-24T11:23:15.162Z,92372.28
2022-11-24T11:24:47.567Z,92372.28
2022-11-24T11:26:25.266Z,92373.25
2022-11-24T11:28:18.155Z,92376.22
2022-11-24T11:34:02.885Z,92369.84
2022-11-24T11:35:30.226Z,92371.00
2022-11-24T11:37:01.822Z,92373.66
2022-11-24T11:38:34.606Z,92368.81
2022-11-24T11:40:08.584Z,92375.25
2022-11-24T11:41:41.587Z,92368.09
2022-11-24T11:43:14.566Z,92374.06
2022-11-24T11:44:53.827Z,92377.03
2022-11-24T11:46:26.035Z,92367.81
2022-11-24T11:48:01.514Z,92370.31
2022-11-24T11:49:33.744Z,92377.44
2022-11-24T11:51:24.552Z,92375.47
2022-11-24T11:53:06.664Z,92377.84
2022-11-24T11:54:50.317Z,92377.03
2022-11-24T11:56:24.361Z,92376.25
2022-11-24T11:58:14.995Z,92377.25
2022-11-24T11:59:55.627Z,92381.19
2022-11-24T12:01:27.951Z,92374.38
2022-11-24T12:03:08.838Z,92373.38
2022-11-24T12:04:53.193Z,92371.69
2022-11-24T12:06:41.910Z,92372.50
2022-11-24T12:08:20.684Z,92380.59
2022-11-24T12:09:53.648Z,92380.31
2022-11-24T12:11:44.390Z,92381.31
2022-11-24T12:13:25.151Z,92383.69
2022-11-24T12:15:12.496Z,92390.28
2022-11-24T12:16:59.318Z,92390.28
2022-11-24T12:18:56.547Z,92389.69
2022-11-24T12:20:41.954Z,92395.84
2022-11-24T12:22:32.134Z,92388.91
2022-11-24T12:24:05.501Z,92391.88
2022-11-24T12:25:41.624Z,92393.66
2022-11-24T12:27:23.317Z,92399.53
2022-11-24T12:29:13.706Z,92402.50
2022-11-24T12:31:04.360Z,92403.56
2022-11-24T12:32:47.803Z,92402.56
2022-11-24T12:34:23.894Z,92405.25
2022-11-24T12:36:04.645Z,92404.34
2022-11-24T12:37:38.975Z,92406.66
2022-11-24T12:39:29.437Z,92403.38
2022-11-24T12:43:20.347Z,92408.22
2022-11-24T12:45:06.262Z,92403.19
2022-11-24T12:46:50.459Z,92406.47
2022-11-24T12:48:48.404Z,92408.41
2022-11-24T12:50:20.416Z,92395.75
2022-11-24T12:51:55.872Z,92401.47
2022-11-24T12:53:28.638Z,92405.25
2022-11-24T12:55:00.690Z,92398.03
2022-11-24T12:56:40.877Z,92394.75
2022-11-24T12:58:12.653Z,92394.66
2022-11-24T12:59:48.248Z,92402.41
2022-11-24T13:01:31.170Z,92410.00
2022-11-24T13:03:24.748Z,92406.25
2022-11-24T13:05:25.658Z,92408.34
2022-11-24T13:06:57.350Z,92399.63
2022-11-24T13:08:29.424Z,92401.22
2022-11-24T13:10:30.013Z,92402.16
2022-11-24T13:12:14.659Z,92398.81
2022-11-24T13:14:00.060Z,92405.75
2022-11-24T13:15:45.565Z,92408.13
2022-11-24T13:17:33.713Z,92411.47
2022-11-24T13:19:16.264Z,92407.69
2022-11-24T13:20:47.901Z,92414.63
2022-11-24T13:22:26.117Z,92412.47
2022-11-24T13:24:07.365Z,92407.41
2022-11-24T13:25:39.709Z,92414.22
2022-11-24T13:27:19.030Z,92421.59
2022-11-24T13:29:13.353Z,92416.25
2022-11-24T13:30:55.938Z,92429.81
2022-11-24T13:32:33.540Z,92425.72
2022-11-24T13:34:25.043Z,92426.06
2022-11-24T13:36:02.910Z,92430.91
2022-11-24T13:37:36.970Z,92439.91
2022-11-24T13:39:17.850Z,92438.00
2022-11-24T13:41:13.333Z,92438.81
2022-11-24T13:42:58.023Z,92428.50
2022-11-24T13:44:38.910Z,92431.63
2022-11-24T13:46:10.666Z,92435.84
2022-11-24T13:47:43.571Z,92436.22
2022-11-24T13:49:20.369Z,92442.75
2022-11-24T13:50:53.282Z,92440.25
2022-11-24T13:52:40.273Z,92441.34
2022-11-24T13:54:12.079Z,92458.03
2022-11-24T13:55:52.259Z,92449.81
2022-11-24T13:57:36.694Z,92455.94
2022-11-24T13:59:17.843Z,92454.50
2022-11-24T14:00:58.853Z,92459.34
2022-11-24T14:02:30.549Z,92462.13
2022-11-24T14:05:54.140Z,92464.81
2022-11-24T14:07:26.065Z,92470.34
2022-11-24T14:09:01.182Z,92474.63
2022-11-24T14:10:34.695Z,92475.91
2022-11-24T14:12:06.753Z,92479.97
2022-11-24T14:13:38.355Z,92488.88
2022-11-24T14:15:16.631Z,92471.88
2022-11-24T14:16:48.261Z,92482.38
2022-11-24T14:18:23.270Z,92478.91
2022-11-24T14:19:55.635Z,92480.00
2022-11-24T14:21:34.784Z,92484.56
2022-11-24T14:23:09.216Z,92493.66
2022-11-24T14:24:45.261Z,92490.19
2022-11-24T14:26:20.647Z,92484.06
2022-11-24T14:27:52.227Z,92487.53
2022-11-24T14:29:24.424Z,92485.94
2022-11-24T14:31:09.741Z,92498.22
2022-11-24T14:32:42.552Z,92497.44
2022-11-24T14:34:14.347Z,92493.66
2022-11-24T14:35:46.654Z,92497.03
2022-11-24T14:37:19.627Z,92494.03
2022-11-24T14:38:51.457Z,92491.06
2022-11-24T14:40:38.509Z,92497.22
2022-11-24T14:42:17.301Z,92488.69
2022-11-24T14:43:48.974Z,92489.00
2022-11-24T14:45:21.079Z,92489.31
2022-11-24T14:47:06.673Z,92484.75
2022-11-24T14:48:38.829Z,92485.63
2022-11-24T14:50:16.600Z,92482.28
2022-11-24T14:51:56.234Z,92486.16
2022-11-24T14:53:27.831Z,92492.41
2022-11-24T14:55:17.392Z,92489.53
2022-11-24T14:56:58.778Z,92490.13
2022-11-24T14:58:37.680Z,92491.50
2022-11-24T15:00:12.519Z,92490.84
2022-11-24T15:01:44.208Z,92498.44
2022-11-24T15:03:18.024Z,92499.63
2022-11-24T15:05:06.348Z,92510.34
2022-11-24T15:06:38.294Z,92506.38
2022-11-24T15:08:10.773Z,92513.59
2022-11-24T15:09:48.672Z,92510.41
2022-11-24T15:11:20.355Z,92513.88
2022-11-24T15:12:53.141Z,92515.47
2022-11-24T15:14:29.670Z,92515.19
2022-11-24T15:16:03.581Z,92517.84
2022-11-24T15:17:35.449Z,92523.22
2022-11-24T15:19:12.093Z,92522.91
2022-11-24T15:20:46.637Z,92528.47
2022-11-24T15:22:47.536Z,92525.50
2022-11-24T15:24:19.290Z,92536.78
2022-11-24T15:26:11.130Z,92534.63
2022-11-24T15:27:42.733Z,92537.56
2022-11-24T15:29:14.438Z,92538.66
2022-11-24T15:30:46.087Z,92532.03
2022-11-24T15:32:17.974Z,92538.16
2022-11-24T15:33:49.556Z,92536.28
2022-11-24T15:35:21.946Z,92538.44
2022-11-24T15:36:53.631Z,92544.09
2022-11-24T15:38:25.563Z,92542.50
2022-11-24T15:39:57.735Z,92534.47
2022-11-24T15:41:29.947Z,92540.94
2022-11-24T15:43:06.264Z,92541.41
2022-11-24T15:44:38.286Z,92536.06
2022-11-24T15:46:10.081Z,92534.41
2022-11-24T15:47:41.903Z,92529.06
2022-11-24T15:49:13.451Z,92535.19
2022-11-24T15:50:45.481Z,92537.88
2022-11-24T15:52:18.768Z,92538.66
2022-11-24T15:53:51.724Z,92552.31
2022-11-24T15:55:25.650Z,92544.31
2022-11-24T15:56:57.259Z,92541.63
2022-11-24T15:58:29.033Z,92548.56
2022-11-24T16:00:00.811Z,92554.50
2022-11-24T16:01:33.134Z,92554.78
2022-11-24T16:03:38.268Z,92555.28
2022-11-24T16:04:56.478Z,92548.28
2022-11-24T16:06:28.203Z,92562.22
2022-11-24T16:08:00.173Z,92556.59
2022-11-24T16:09:31.849Z,92564.59
2022-11-24T16:11:03.831Z,92564.91
2022-11-24T16:12:35.526Z,92558.25
2022-11-24T16:14:07.390Z,92559.56
2022-11-24T16:15:39.135Z,92561.22
2022-11-24T16:17:10.762Z,92568.25
2022-11-24T16:18:42.539Z,92568.59
2022-11-24T16:20:14.715Z,92559.03
2022-11-24T16:21:49.149Z,92564.38
2022-11-24T16:23:21.590Z,92565.63
2022-11-24T16:24:53.183Z,92567.50
2022-11-24T16:26:24.753Z,92569.72
2022-11-24T16:27:56.299Z,92572.97
2022-11-24T16:29:27.979Z,92569.50
2022-11-24T16:30:59.583Z,92575.34
2022-11-24T16:32:31.224Z,92575.13
2022-11-24T16:34:03.067Z,92575.44
2022-11-24T16:35:34.854Z,92584.25
2022-11-24T16:37:06.919Z,92581.28
2022-11-24T16:38:38.912Z,92581.28
2022-11-24T16:40:10.873Z,92584.47
2022-11-24T16:41:42.425Z,92585.25
2022-11-24T16:43:13.974Z,92590.31
2022-11-24T16:44:45.882Z,92589.19
2022-11-24T16:46:18.989Z,92587.31
2022-11-24T16:47:50.581Z,92588.09
2022-11-24T16:49:22.305Z,92594.53
2022-11-24T16:50:54.067Z,92590.59
2022-11-24T16:52:25.628Z,92595.44
2022-11-24T16:54:00.831Z,92588.50
2022-11-24T16:55:32.513Z,92597.31
2022-11-24T16:57:04.185Z,92586.34
2022-11-24T16:58:38.827Z,92597.31
2022-11-24T17:00:10.657Z,92597.91
2022-11-24T17:01:43.659Z,92597.09
2022-11-24T17:03:15.638Z,92601.38
2022-11-24T17:04:47.270Z,92595.22
2022-11-24T17:06:19.392Z,92591.47
2022-11-24T17:07:51.402Z,92589.88
2022-11-24T17:09:23.047Z,92589.38
2022-11-24T17:10:54.634Z,92590.44
2022-11-24T17:12:26.747Z,92588.78
2022-11-24T17:13:58.700Z,92594.94
2022-11-24T17:15:34.563Z,92596.81
2022-11-24T17:17:07.164Z,92591.47
2022-11-24T17:18:39.106Z,92589.81
2022-11-24T17:20:11.033Z,92598.00
2022-11-24T17:21:43.269Z,92594.53
2022-11-24T17:23:14.867Z,92595.94
2022-11-24T17:24:46.424Z,92600.00
2022-11-24T17:26:18.552Z,92604.25
2022-11-24T17:27:50.175Z,92604.25
2022-11-24T17:29:21.728Z,92602.66
2022-11-24T17:30:53.419Z,92601.88
2022-11-24T17:32:25.227Z,92605.13
2022-11-24T17:33:57.412Z,92602.72
2022-11-24T17:35:28.952Z,92598.00
2022-11-24T17:37:00.600Z,92601.94
2022-11-24T17:38:32.378Z,92608.59
2022-11-24T17:40:27.259Z,92600.56
2022-11-24T17:41:56.613Z,92607.00
2022-11-24T17:43:28.355Z,92604.94
2022-11-24T17:45:00.035Z,92609.47
2022-11-24T17:46:32.199Z,92606.50
2022-11-24T17:48:03.792Z,92608.06
2022-11-24T17:49:35.317Z,92607.28
2022-11-24T17:51:10.590Z,92605.41
2022-11-24T17:52:42.270Z,92607.28
2022-11-24T17:56:05.819Z,92603.25
2022-11-24T17:57:37.476Z,92601.94
2022-11-24T17:59:08.980Z,92603.81
2022-11-24T18:00:40.623Z,92608.06
2022-11-24T18:02:12.275Z,92595.22
2022-11-24T18:03:45.863Z,92607.50
2022-11-24T18:05:21.402Z,92612.84
2022-11-24T18:06:52.970Z,92616.59
2022-11-24T18:08:24.626Z,92601.16
2022-11-24T18:09:56.197Z,92610.28
2022-11-24T18:11:31.433Z,92613.22
2022-11-24T18:13:03.692Z,92608.47
2022-11-24T18:14:35.530Z,92609.03
2022-11-24T18:16:08.379Z,92609.84
2022-11-24T18:17:40.185Z,92614.69
2022-11-24T18:19:12.478Z,92609.94
2022-11-24T18:20:44.062Z,92617.44
2022-11-24T18:22:15.740Z,92612.09
2022-11-24T18:23:47.558Z,92619.03
2022-11-24T18:25:19.240Z,92621.50
2022-11-24T18:26:50.862Z,92620.13
2022-11-24T18:28:22.463Z,92620.91
2022-11-24T18:29:56.226Z,92623.78
2022-11-24T18:31:29.588Z,92631.50
2022-11-24T18:33:01.371Z,92626.38
2022-11-24T18:34:33.420Z,92632.53
2022-11-24T18:36:06.971Z,92631.44
2022-11-24T18:37:43.663Z,92630.06
2022-11-24T18:39:17.996Z,92630.88
2022-11-24T18:40:55.950Z,92630.06
2022-11-24T18:42:28.398Z,92626.59
2022-11-24T18:44:02.559Z,92628.47
2022-11-24T18:45:34.172Z,92627.69
2022-11-24T18:47:05.902Z,92627.69
2022-11-24T18:48:37.585Z,92630.53
2022-11-24T18:50:09.246Z,92634.00
2022-11-24T18:51:40.942Z,92636.41
2022-11-24T18:53:12.521Z,92640.44
2022-11-24T18:54:44.629Z,92637.78